This is the latest recevied weather packets stored in our database for station/object N6SPP. If no packets are shown the sender has not sent any weather packets the latest 10 day(s).
| Time | Temp. | Humidity | Pressure | Rain* | Wind** | Luminosity | Snow |
|---|---|---|---|---|---|---|---|
| 1777651622 | 20.56° C | 54% | 1016.3 hPa | 0 mm | - | 394 W/m² | - |
| 1777651320 | 19.44° C | 59% | 1016.2 hPa | 0 mm | - | 374 W/m² | - |
| 1777651017 | 19.44° C | 59% | 1016.1 hPa | 0 mm | - | 355 W/m² | - |
| 1777650714 | 19.44° C | 59% | 1016.2 hPa | 0 mm | - | 341 W/m² | - |
| 1777650411 | 18.89° C | 61% | 1016.2 hPa | 0 mm | - | 321 W/m² | - |
| 1777650108 | 18.89° C | 60% | 1016.1 hPa | 0 mm | - | 312 W/m² | - |
| 1777649805 | 18.89° C | 61% | 1016.2 hPa | 0 mm | - | 297 W/m² | - |
| 1777649502 | 18.33° C | 64% | 1015.9 hPa | 0 mm | - | 277 W/m² | - |
| 1777649199 | 18.33° C | 62% | 1015.9 hPa | 0 mm | - | 260 W/m² | - |
| 1777648896 | 17.78° C | 64% | 1016 hPa | 0 mm | - | 244 W/m² | - |
| 1777648289 | 17.22° C | 66% | 1016 hPa | 0 mm | - | 214 W/m² | - |
| 1777647986 | 17.22° C | 66% | 1015.9 hPa | 0 mm | - | 194 W/m² | - |
| 1777647682 | 17.22° C | 65% | 1016.1 hPa | 0 mm | - | 184 W/m² | - |
| 1777647378 | 17.22° C | 66% | 1015.8 hPa | 0 mm | - | 170 W/m² | - |
| 1777647076 | 16.67° C | 66% | 1015.8 hPa | 0 mm | - | 155 W/m² | - |
| 1777646773 | 16.67° C | 67% | 1015.9 hPa | 0 mm | - | 140 W/m² | - |
| 1777646472 | 16.11° C | 68% | 1015.8 hPa | 0 mm | - | 127 W/m² | - |
| 1777646169 | 16.11° C | 69% | 1015.7 hPa | 0 mm | - | 115 W/m² | - |
| 1777645866 | 16.11° C | 69% | 1015.5 hPa | 0 mm | - | 101 W/m² | - |
| 1777645563 | 16.11° C | 68% | 1015.6 hPa | 0 mm | - | 89 W/m² | - |
| 1777645259 | 15.56° C | 71% | 1015.7 hPa | 0 mm | - | 79 W/m² | - |
| 1777644955 | 15° C | 71% | 1015.4 hPa | 0 mm | - | 69 W/m² | - |
| 1777644653 | 15° C | 71% | 1015.5 hPa | 0 mm | - | 61 W/m² | - |
| 1777644349 | 15.56° C | 71% | 1015.4 hPa | 0 mm | - | 53 W/m² | - |
| 1777644045 | 15° C | 71% | 1015.3 hPa | 0 mm | - | 45 W/m² | - |
* Rain latest hour (hover to see other rain measurements)
** Current wind speed in m/s (hover to see current wind gust speed)